Time;durP1;ratioP1;P1;durP2;ratioP2;P2;SDS_P1;SDS_P2;PMS_P1;PMS_P2;Temp;Humidity;BMP_temperature;BMP_pressure;BME280_temperature;BME280_humidity;BME280_pressure;Samples;Min_cycle;Max_cycle;Signal;HPM_P1;HPM_P2
2022/08/24 00:00:52;;;;;;;403.92;231.80;;;;;;;;;;4950157;28;20222;-51
2022/08/24 00:03:18;;;;;;;401.65;228.98;;;;;;;;;;4950163;28;20221;-51
2022/08/24 00:05:44;;;;;;;409.13;235.65;;;;;;;;;;4949411;28;20224;-51
2022/08/24 00:08:10;;;;;;;420.58;240.85;;;;;;;;;;4948868;28;20225;-50
2022/08/24 00:10:36;;;;;;;405.10;233.60;;;;;;;;;;4943015;28;20288;-50
2022/08/24 00:13:02;;;;;;;391.85;227.77;;;;;;;;;;4946092;28;20230;-51
2022/08/24 00:15:28;;;;;;;383.05;224.77;;;;;;;;;;4950318;28;20189;-50
2022/08/24 00:17:54;;;;;;;399.92;231.40;;;;;;;;;;4948117;28;20535;-50
2022/08/24 00:20:20;;;;;;;373.23;220.10;;;;;;;;;;4953805;28;20226;-50
2022/08/24 00:22:45;;;;;;;413.73;240.70;;;;;;;;;;4947901;28;20222;-50
2022/08/24 00:25:12;;;;;;;415.75;238.10;;;;;;;;;;4946457;28;20226;-51
2022/08/24 00:27:39;;;;;;;393.25;224.75;;;;;;;;;;4949329;28;20564;-50
2022/08/24 00:30:07;;;;;;;424.48;246.15;;;;;;;;;;4950511;28;20183;-51
2022/08/24 00:32:33;;;;;;;363.05;212.15;;;;;;;;;;4947189;28;20220;-50
2022/08/24 00:34:59;;;;;;;396.60;232.32;;;;;;;;;;4948310;28;20332;-50
2022/08/24 00:37:27;;;;;;;375.48;218.90;;;;;;;;;;4949089;28;20678;-50
2022/08/24 00:39:53;;;;;;;383.50;225.73;;;;;;;;;;4949905;28;20214;-51
2022/08/24 00:42:19;;;;;;;391.80;226.05;;;;;;;;;;4944742;28;20273;-50
2022/08/24 00:44:45;;;;;;;368.33;213.23;;;;;;;;;;4954481;28;20647;-51
2022/08/24 00:47:13;;;;;;;386.73;224.55;;;;;;;;;;4946569;28;20317;-51
2022/08/24 00:49:41;;;;;;;403.85;234.93;;;;;;;;;;4946070;28;20218;-50
2022/08/24 00:52:07;;;;;;;412.40;235.45;;;;;;;;;;4946912;28;20298;-50
2022/08/24 00:54:36;;;;;;;390.88;229.43;;;;;;;;;;4948728;28;20244;-51
2022/08/24 00:57:04;;;;;;;412.83;240.10;;;;;;;;;;4943153;28;20190;-51
2022/08/24 00:59:33;;;;;;;380.65;213.52;;;;;;;;;;4947421;28;20210;-50
2022/08/24 01:02:01;;;;;;;460.38;257.92;;;;;;;;;;4947826;28;20233;-51
2022/08/24 01:04:31;;;;;;;360.48;206.65;;;;;;;;;;4948324;28;20228;-51
2022/08/24 01:06:58;;;;;;;389.23;219.65;;;;;;;;;;4951927;28;20295;-50
2022/08/24 01:09:24;;;;;;;365.70;201.90;;;;;;;;;;4953546;28;20621;-51
2022/08/24 01:11:50;;;;;;;380.13;215.52;;;;;;;;;;4949981;28;21297;-50
2022/08/24 01:14:17;;;;;;;391.35;217.10;;;;;;;;;;4951403;28;20677;-51
2022/08/24 01:19:30;;;;;;;373.55;209.88;;;;;;;;;;4948459;28;20241;-50
2022/08/24 01:22:05;;;;;;;371.77;212.52;;;;;;;;;;4952559;28;20233;-50
2022/08/24 01:24:31;;;;;;;362.10;214.23;;;;;;;;;;4951328;28;20288;-50
2022/08/24 01:26:58;;;;;;;404.33;229.57;;;;;;;;;;4946486;28;20227;-51
2022/08/24 01:29:26;;;;;;;400.92;227.88;;;;;;;;;;4945589;28;20214;-51
2022/08/24 01:31:52;;;;;;;414.85;239.45;;;;;;;;;;4950549;28;20555;-50
2022/08/24 01:34:19;;;;;;;389.90;222.55;;;;;;;;;;4950312;28;20389;-50
2022/08/24 01:36:47;;;;;;;365.27;210.57;;;;;;;;;;4949456;28;20556;-50
2022/08/24 01:39:14;;;;;;;423.13;238.60;;;;;;;;;;4943162;28;20288;-51
2022/08/24 01:41:40;;;;;;;440.58;243.35;;;;;;;;;;4947982;28;20241;-50
2022/08/24 01:44:06;;;;;;;387.58;226.23;;;;;;;;;;4947423;28;20222;-50
2022/08/24 01:46:33;;;;;;;387.77;223.52;;;;;;;;;;4948797;28;20308;-51
2022/08/24 01:48:59;;;;;;;389.55;218.05;;;;;;;;;;4946596;28;20879;-50
2022/08/24 01:51:28;;;;;;;419.98;236.80;;;;;;;;;;4948777;28;20178;-50
2022/08/24 01:53:54;;;;;;;362.02;200.18;;;;;;;;;;4949384;28;20287;-50
2022/08/24 01:56:20;;;;;;;370.20;206.25;;;;;;;;;;4946234;28;20238;-51
2022/08/24 01:58:46;;;;;;;415.83;234.23;;;;;;;;;;4945773;28;20372;-50
2022/08/24 02:01:13;;;;;;;416.98;235.20;;;;;;;;;;4948403;28;20593;-50
2022/08/24 02:03:39;;;;;;;389.98;217.43;;;;;;;;;;4946541;28;20510;-51
2022/08/24 02:06:05;;;;;;;425.25;237.55;;;;;;;;;;4948435;28;20237;-50
2022/08/24 02:08:33;;;;;;;398.73;225.32;;;;;;;;;;4949140;28;20626;-50
2022/08/24 02:10:59;;;;;;;381.05;219.20;;;;;;;;;;4944878;28;20322;-50
2022/08/24 02:13:27;;;;;;;404.10;227.00;;;;;;;;;;4948371;28;20234;-50
2022/08/24 02:15:53;;;;;;;369.45;209.68;;;;;;;;;;4947815;28;20719;-50
2022/08/24 02:18:19;;;;;;;415.40;241.68;;;;;;;;;;4942307;28;20835;-51
2022/08/24 02:20:45;;;;;;;423.52;240.15;;;;;;;;;;4951592;28;20218;-50
2022/08/24 02:23:11;;;;;;;449.77;254.50;;;;;;;;;;4951824;28;20785;-50
2022/08/24 02:25:37;;;;;;;437.33;249.00;;;;;;;;;;4951229;28;20225;-51
2022/08/24 02:28:03;;;;;;;389.98;225.95;;;;;;;;;;4953936;28;20248;-50
2022/08/24 02:30:29;;;;;;;422.15;245.05;;;;;;;;;;4950059;28;20209;-50
2022/08/24 02:32:56;;;;;;;390.45;229.13;;;;;;;;;;4949826;28;20191;-51
2022/08/24 02:35:22;;;;;;;386.13;227.00;;;;;;;;;;4953233;28;20218;-50
2022/08/24 02:37:48;;;;;;;404.95;231.75;;;;;;;;;;4946911;28;20798;-50
2022/08/24 02:40:14;;;;;;;456.55;251.45;;;;;;;;;;4948466;28;20218;-50
2022/08/24 02:42:40;;;;;;;417.80;238.98;;;;;;;;;;4952115;28;20190;-51
2022/08/24 02:45:07;;;;;;;395.88;228.93;;;;;;;;;;4951444;28;20215;-50
2022/08/24 02:47:34;;;;;;;362.70;212.20;;;;;;;;;;4951779;28;20223;-50
2022/08/24 02:50:01;;;;;;;364.83;214.57;;;;;;;;;;4950540;28;20269;-51
2022/08/24 02:52:27;;;;;;;379.98;221.65;;;;;;;;;;4948753;28;20632;-50
2022/08/24 02:54:53;;;;;;;383.23;228.05;;;;;;;;;;4954745;28;20229;-50
2022/08/24 02:57:19;;;;;;;395.65;232.32;;;;;;;;;;4951384;28;21293;-50
2022/08/24 02:59:45;;;;;;;414.23;242.00;;;;;;;;;;4951599;28;20219;-50
2022/08/24 03:02:10;;;;;;;356.55;215.05;;;;;;;;;;4951537;28;20332;-50
2022/08/24 03:04:37;;;;;;;359.05;213.68;;;;;;;;;;4947447;28;20221;-50
2022/08/24 03:07:03;;;;;;;394.58;232.77;;;;;;;;;;4952985;28;20300;-50
2022/08/24 03:09:29;;;;;;;394.77;237.63;;;;;;;;;;4951697;28;20197;-50
2022/08/24 03:11:55;;;;;;;372.35;222.85;;;;;;;;;;4951068;28;20186;-50
2022/08/24 03:14:21;;;;;;;376.35;220.25;;;;;;;;;;4951798;28;20248;-50
2022/08/24 03:16:47;;;;;;;362.80;217.02;;;;;;;;;;4952400;28;20550;-50
2022/08/24 03:19:14;;;;;;;415.42;241.23;;;;;;;;;;4949912;28;20446;-50
2022/08/24 03:21:40;;;;;;;378.30;219.15;;;;;;;;;;4951585;28;20195;-50
2022/08/24 03:24:07;;;;;;;372.40;205.48;;;;;;;;;;4972874;23;20237;-55
2022/08/24 03:26:33;;;;;;;395.95;217.88;;;;;;;;;;4977157;28;20240;-55
2022/08/24 03:28:59;;;;;;;357.15;194.90;;;;;;;;;;4982264;28;20309;-55
2022/08/24 03:31:25;;;;;;;366.75;201.07;;;;;;;;;;4971450;28;20276;-54
2022/08/24 03:33:51;;;;;;;403.90;218.02;;;;;;;;;;4976841;28;20235;-55
2022/08/24 03:36:17;;;;;;;410.70;223.30;;;;;;;;;;4982540;28;20189;-55
2022/08/24 03:38:43;;;;;;;360.90;198.50;;;;;;;;;;4978059;28;20216;-55
2022/08/24 03:41:10;;;;;;;370.95;201.90;;;;;;;;;;4973895;28;20210;-54
2022/08/24 03:43:47;;;;;;;365.80;196.45;;;;;;;;;;4987238;28;20237;-54
2022/08/24 03:46:25;;;;;;;413.77;224.33;;;;;;;;;;4982614;28;20228;-55
2022/08/24 03:48:51;;;;;;;351.23;194.00;;;;;;;;;;4978987;28;20228;-54
2022/08/24 03:51:18;;;;;;;405.50;219.68;;;;;;;;;;4979260;28;20236;-54
2022/08/24 03:53:45;;;;;;;354.40;193.38;;;;;;;;;;4979435;28;20216;-54
2022/08/24 03:56:11;;;;;;;406.58;217.60;;;;;;;;;;4976278;28;20621;-55
2022/08/24 03:58:38;;;;;;;417.27;221.85;;;;;;;;;;4977272;28;20229;-55
2022/08/24 04:01:04;;;;;;;345.75;191.07;;;;;;;;;;4980847;28;20232;-56
2022/08/24 04:03:30;;;;;;;365.00;199.18;;;;;;;;;;4975976;28;20625;-55
2022/08/24 04:05:57;;;;;;;363.65;203.48;;;;;;;;;;4979367;28;20550;-56
2022/08/24 04:08:23;;;;;;;401.95;221.05;;;;;;;;;;4978132;28;20531;-56
2022/08/24 04:10:49;;;;;;;471.23;246.60;;;;;;;;;;4970449;28;20217;-55
2022/08/24 04:13:16;;;;;;;407.85;218.63;;;;;;;;;;4978641;28;20235;-55
2022/08/24 04:15:42;;;;;;;426.05;216.80;;;;;;;;;;4976749;28;20639;-56
2022/08/24 04:18:08;;;;;;;363.02;184.05;;;;;;;;;;4977830;28;20642;-55
2022/08/24 04:20:38;;;;;;;411.67;215.15;;;;;;;;;;4974216;28;20296;-55
2022/08/24 04:23:06;;;;;;;355.90;187.40;;;;;;;;;;4979604;28;20295;-55
2022/08/24 04:25:37;;;;;;;377.17;195.27;;;;;;;;;;4975904;28;20272;-55
2022/08/24 04:28:04;;;;;;;403.15;214.25;;;;;;;;;;4976039;28;20275;-55
2022/08/24 04:30:30;;;;;;;378.33;201.85;;;;;;;;;;4973183;28;20246;-55
2022/08/24 04:32:56;;;;;;;374.77;200.77;;;;;;;;;;4975601;28;20281;-55
2022/08/24 04:35:22;;;;;;;415.15;216.70;;;;;;;;;;4977179;28;20546;-55
2022/08/24 04:37:48;;;;;;;364.23;198.32;;;;;;;;;;4978532;28;20222;-56
2022/08/24 04:40:14;;;;;;;358.70;195.18;;;;;;;;;;4980301;28;20582;-55
2022/08/24 04:42:40;;;;;;;415.02;215.48;;;;;;;;;;4974281;28;20651;-56
2022/08/24 04:45:06;;;;;;;375.20;194.90;;;;;;;;;;4978048;28;20209;-56
2022/08/24 04:47:32;;;;;;;594.63;300.77;;;;;;;;;;4966348;28;21067;-56
2022/08/24 04:49:59;;;;;;;425.20;214.60;;;;;;;;;;4964009;28;20210;-56
2022/08/24 04:52:25;;;;;;;441.50;222.75;;;;;;;;;;4970554;28;20213;-56
2022/08/24 04:54:50;;;;;;;421.95;214.20;;;;;;;;;;4971658;28;20323;-56
2022/08/24 04:57:17;;;;;;;382.70;197.10;;;;;;;;;;4975058;28;20193;-55
2022/08/24 04:59:43;;;;;;;348.27;181.82;;;;;;;;;;4975023;28;20240;-56
2022/08/24 05:02:09;;;;;;;419.05;225.95;;;;;;;;;;4973380;28;20528;-56
2022/08/24 05:04:36;;;;;;;394.38;214.55;;;;;;;;;;4973760;28;20218;-56
2022/08/24 05:07:02;;;;;;;379.67;209.43;;;;;;;;;;4972694;28;20218;-55
2022/08/24 05:09:28;;;;;;;392.33;207.60;;;;;;;;;;4974758;28;20658;-56
2022/08/24 05:11:56;;;;;;;375.20;200.07;;;;;;;;;;4979718;28;20188;-56
2022/08/24 05:14:22;;;;;;;429.52;231.77;;;;;;;;;;4969457;28;20645;-56
2022/08/24 05:16:47;;;;;;;390.52;212.90;;;;;;;;;;4973241;28;20232;-56
2022/08/24 05:19:13;;;;;;;416.23;220.35;;;;;;;;;;4971442;28;20236;-55
2022/08/24 05:21:43;;;;;;;370.33;198.40;;;;;;;;;;4976325;28;20200;-56
2022/08/24 05:24:09;;;;;;;398.58;214.68;;;;;;;;;;4972437;28;20221;-55
2022/08/24 05:26:35;;;;;;;412.48;217.93;;;;;;;;;;4969286;28;20224;-55
2022/08/24 05:29:01;;;;;;;385.15;198.70;;;;;;;;;;4973703;28;20387;-55
2022/08/24 05:31:29;;;;;;;405.45;208.68;;;;;;;;;;4974533;28;20341;-55
2022/08/24 05:33:55;;;;;;;427.40;230.68;;;;;;;;;;4972962;28;20540;-55
2022/08/24 05:36:26;;;;;;;443.67;237.95;;;;;;;;;;4973429;28;20189;-56
2022/08/24 05:38:53;;;;;;;431.13;235.10;;;;;;;;;;4974866;28;20279;-56
2022/08/24 05:41:20;;;;;;;420.98;228.88;;;;;;;;;;4973836;28;20221;-56
2022/08/24 05:43:46;;;;;;;404.95;221.48;;;;;;;;;;4978701;28;20214;-56
2022/08/24 05:46:12;;;;;;;389.50;214.77;;;;;;;;;;4978221;28;20700;-57
2022/08/24 05:48:38;;;;;;;427.02;233.18;;;;;;;;;;4970091;28;20182;-56
2022/08/24 05:51:05;;;;;;;396.00;215.05;;;;;;;;;;4971374;28;20471;-56
2022/08/24 05:53:32;;;;;;;386.65;206.30;;;;;;;;;;4979742;28;20229;-57
2022/08/24 05:55:58;;;;;;;368.40;199.25;;;;;;;;;;4980842;28;20213;-56
2022/08/24 05:58:23;;;;;;;399.40;222.15;;;;;;;;;;4977088;28;20304;-56
2022/08/24 06:00:49;;;;;;;450.42;248.52;;;;;;;;;;4975776;28;20213;-56
2022/08/24 06:03:16;;;;;;;448.08;246.50;;;;;;;;;;4975560;28;20764;-56
2022/08/24 06:05:42;;;;;;;483.70;256.40;;;;;;;;;;4982317;28;20336;-56
2022/08/24 06:08:09;;;;;;;393.85;217.25;;;;;;;;;;4981313;28;20322;-56
2022/08/24 06:10:46;;;;;;;427.88;235.00;;;;;;;;;;4974126;28;20618;-55
2022/08/24 06:13:13;;;;;;;395.48;204.35;;;;;;;;;;4981768;28;20229;-56
2022/08/24 06:15:39;;;;;;;459.25;229.18;;;;;;;;;;4974019;28;20170;-57
2022/08/24 06:18:06;;;;;;;387.70;216.43;;;;;;;;;;4971120;28;20181;-56
2022/08/24 06:20:32;;;;;;;444.05;237.55;;;;;;;;;;4953591;28;20307;-56
2022/08/24 06:22:58;;;;;;;422.45;230.68;;;;;;;;;;4962691;28;20218;-56
2022/08/24 06:28:09;;;;;;;415.05;222.10;;;;;;;;;;4969907;28;20216;-56
2022/08/24 06:30:36;;;;;;;404.50;225.63;;;;;;;;;;4969976;28;20182;-56
2022/08/24 06:33:02;;;;;;;373.75;206.52;;;;;;;;;;4978591;28;20579;-56
2022/08/24 06:35:28;;;;;;;375.42;202.82;;;;;;;;;;4985272;28;20206;-56
2022/08/24 06:37:55;;;;;;;459.60;240.20;;;;;;;;;;4963986;28;20225;-56
2022/08/24 06:40:21;;;;;;;415.73;232.18;;;;;;;;;;4970103;28;20249;-56
2022/08/24 06:42:47;;;;;;;425.20;223.52;;;;;;;;;;4974505;28;20407;-55
2022/08/24 06:45:13;;;;;;;455.08;245.98;;;;;;;;;;4972439;28;20182;-55
2022/08/24 06:47:40;;;;;;;412.25;228.32;;;;;;;;;;4973817;28;20369;-53
2022/08/24 06:50:07;;;;;;;425.33;229.20;;;;;;;;;;4968887;28;20224;-54
2022/08/24 06:52:34;;;;;;;464.10;249.98;;;;;;;;;;4963272;28;20848;-52
2022/08/24 06:55:00;;;;;;;448.00;232.27;;;;;;;;;;4961035;28;20225;-54
2022/08/24 06:57:26;;;;;;;539.22;258.42;;;;;;;;;;4966868;28;20666;-54
2022/08/24 06:59:53;;;;;;;460.35;224.73;;;;;;;;;;4966781;28;20272;-54
2022/08/24 07:02:19;;;;;;;437.98;219.35;;;;;;;;;;4958949;28;20217;-53
2022/08/24 07:04:45;;;;;;;462.45;232.40;;;;;;;;;;4965386;28;20224;-54
2022/08/24 07:07:11;;;;;;;507.30;261.35;;;;;;;;;;4964278;28;20224;-54
2022/08/24 07:09:37;;;;;;;472.63;244.02;;;;;;;;;;4961111;28;20201;-56
2022/08/24 07:12:04;;;;;;;532.15;261.65;;;;;;;;;;4963278;28;20201;-56
2022/08/24 07:14:30;;;;;;;474.38;258.75;;;;;;;;;;4966533;28;20218;-55
2022/08/24 07:16:56;;;;;;;416.48;236.15;;;;;;;;;;4969456;28;20676;-55
2022/08/24 07:19:22;;;;;;;433.42;242.05;;;;;;;;;;4978114;28;20213;-54
2022/08/24 07:21:48;;;;;;;463.05;257.55;;;;;;;;;;4969022;28;20631;-55
2022/08/24 07:24:14;;;;;;;442.88;234.77;;;;;;;;;;4965287;28;21248;-55
2022/08/24 07:26:41;;;;;;;436.27;229.02;;;;;;;;;;4974031;28;20308;-54
2022/08/24 07:29:13;;;;;;;408.27;223.18;;;;;;;;;;4982617;28;20221;-55
2022/08/24 07:31:39;;;;;;;456.45;240.10;;;;;;;;;;4976306;28;20309;-55
2022/08/24 07:34:07;;;;;;;409.80;226.90;;;;;;;;;;4969900;28;20276;-55
2022/08/24 07:36:33;;;;;;;457.63;243.63;;;;;;;;;;4979946;28;20527;-56
2022/08/24 07:38:59;;;;;;;460.92;237.93;;;;;;;;;;4964766;28;20185;-55
2022/08/24 07:41:26;;;;;;;436.48;237.57;;;;;;;;;;4960026;28;20882;-55
2022/08/24 07:43:52;;;;;;;459.83;258.85;;;;;;;;;;4976714;28;20206;-55
2022/08/24 07:46:18;;;;;;;458.75;258.58;;;;;;;;;;4972202;28;21684;-55
2022/08/24 07:48:44;;;;;;;391.75;221.93;;;;;;;;;;4979054;28;20266;-55
2022/08/24 07:51:11;;;;;;;413.30;237.55;;;;;;;;;;4965366;28;20178;-55
2022/08/24 07:53:37;;;;;;;430.73;243.88;;;;;;;;;;4978941;28;20231;-55
2022/08/24 07:56:03;;;;;;;416.05;237.90;;;;;;;;;;4975003;28;20224;-55
2022/08/24 07:58:29;;;;;;;444.67;250.35;;;;;;;;;;4967162;28;20420;-56
2022/08/24 08:00:56;;;;;;;397.08;224.95;;;;;;;;;;4966108;28;20217;-55
2022/08/24 08:03:24;;;;;;;378.92;222.38;;;;;;;;;;4978471;28;20197;-55
2022/08/24 08:05:55;;;;;;;436.67;249.20;;;;;;;;;;4971753;28;20309;-55
2022/08/24 08:08:21;;;;;;;439.75;250.40;;;;;;;;;;4972400;28;20257;-55
2022/08/24 08:10:48;;;;;;;386.00;225.43;;;;;;;;;;4980044;28;20278;-55
2022/08/24 08:13:14;;;;;;;420.25;244.38;;;;;;;;;;4983031;28;20229;-55
2022/08/24 08:15:41;;;;;;;481.02;268.80;;;;;;;;;;4971430;28;20265;-55
2022/08/24 08:18:07;;;;;;;430.30;240.30;;;;;;;;;;4971839;28;20182;-55
2022/08/24 08:20:33;;;;;;;445.30;255.85;;;;;;;;;;4969558;28;20393;-55
2022/08/24 08:25:47;;;;;;;472.05;267.38;;;;;;;;;;4971354;28;20263;-56
2022/08/24 08:28:14;;;;;;;406.80;240.00;;;;;;;;;;4977689;28;20225;-55
2022/08/24 08:30:40;;;;;;;405.58;236.00;;;;;;;;;;4974828;28;20650;-55
2022/08/24 08:33:07;;;;;;;391.25;227.20;;;;;;;;;;4975896;28;20566;-55
2022/08/24 08:35:33;;;;;;;439.45;251.30;;;;;;;;;;4973163;28;20681;-55
2022/08/24 08:37:59;;;;;;;434.13;257.73;;;;;;;;;;4972483;28;20206;-55
2022/08/24 08:40:54;;;;;;;486.83;272.60;;;;;;;;;;4969735;28;20881;-55
2022/08/24 08:43:32;;;;;;;432.52;248.00;;;;;;;;;;4965996;28;20222;-55
2022/08/24 08:46:11;;;;;;;427.83;250.73;;;;;;;;;;4974454;28;20857;-55
2022/08/24 08:48:52;;;;;;;428.25;244.60;;;;;;;;;;4960120;28;20718;-56
2022/08/24 08:51:18;;;;;;;433.35;253.48;;;;;;;;;;4969565;28;20182;-55
2022/08/24 08:53:54;;;;;;;407.10;239.13;;;;;;;;;;4969889;28;20720;-55
2022/08/24 08:56:47;;;;;;;425.33;258.95;;;;;;;;;;4968848;28;20234;-55
2022/08/24 08:59:22;;;;;;;418.88;244.80;;;;;;;;;;4949814;28;20423;-55
2022/08/24 09:02:06;;;;;;;502.05;281.08;;;;;;;;;;4965468;28;20219;-55
2022/08/24 09:04:58;;;;;;;388.70;227.30;;;;;;;;;;4970430;28;20225;-55
2022/08/24 09:07:33;;;;;;;498.90;291.10;;;;;;;;;;4966858;28;20205;-55
2022/08/24 09:10:13;;;;;;;435.38;266.00;;;;;;;;;;4968403;28;20213;-55
2022/08/24 09:12:42;;;;;;;410.08;248.90;;;;;;;;;;4977748;28;20613;-55
2022/08/24 09:15:20;;;;;;;413.75;245.68;;;;;;;;;;4972011;28;20626;-55
2022/08/24 09:17:49;;;;;;;453.77;266.98;;;;;;;;;;4976609;28;20698;-55
2022/08/24 09:20:15;;;;;;;441.42;266.17;;;;;;;;;;4978514;28;20403;-55
2022/08/24 09:22:46;;;;;;;406.40;245.95;;;;;;;;;;4983147;28;20353;-55
2022/08/24 09:25:25;;;;;;;384.50;222.30;;;;;;;;;;4996807;23;20255;-55
2022/08/24 09:27:51;;;;;;;397.60;228.02;;;;;;;;;;4983894;28;20217;-55
2022/08/24 09:30:20;;;;;;;423.25;242.40;;;;;;;;;;4986587;28;20636;-55
2022/08/24 09:32:46;;;;;;;390.23;235.57;;;;;;;;;;4982232;28;20224;-55
2022/08/24 09:35:14;;;;;;;375.48;233.10;;;;;;;;;;4984215;28;20229;-55
2022/08/24 09:37:40;;;;;;;427.90;258.42;;;;;;;;;;4982873;28;20213;-55
2022/08/24 09:40:17;;;;;;;405.27;251.55;;;;;;;;;;4986602;28;20213;-55
2022/08/24 09:42:45;;;;;;;393.40;248.68;;;;;;;;;;4986305;28;20332;-55
2022/08/24 09:45:19;;;;;;;389.13;244.35;;;;;;;;;;4984323;28;20248;-55
2022/08/24 09:47:57;;;;;;;414.40;249.02;;;;;;;;;;4983459;28;20206;-56
2022/08/24 09:50:42;;;;;;;367.00;234.82;;;;;;;;;;4984190;28;20303;-56
2022/08/24 09:53:14;;;;;;;380.00;242.55;;;;;;;;;;4984532;28;20217;-56
2022/08/24 09:55:53;;;;;;;405.75;259.20;;;;;;;;;;4981835;28;20531;-55
2022/08/24 09:58:21;;;;;;;395.90;247.73;;;;;;;;;;4981301;28;20213;-56
2022/08/24 10:00:51;;;;;;;393.92;241.88;;;;;;;;;;4984508;28;20566;-55
2022/08/24 10:03:24;;;;;;;392.35;240.32;;;;;;;;;;4979829;28;20213;-55
2022/08/24 10:05:58;;;;;;;401.60;249.40;;;;;;;;;;4983672;28;20221;-55
2022/08/24 10:08:43;;;;;;;373.13;236.52;;;;;;;;;;4981339;28;20754;-55
2022/08/24 10:11:28;;;;;;;379.15;237.13;;;;;;;;;;4982472;28;20573;-56
2022/08/24 10:13:57;;;;;;;389.00;242.68;;;;;;;;;;4986774;28;20308;-55
2022/08/24 10:16:29;;;;;;;401.40;250.18;;;;;;;;;;4979939;28;20248;-55
2022/08/24 10:19:01;;;;;;;391.75;247.63;;;;;;;;;;4978279;28;20209;-55
2022/08/24 10:21:45;;;;;;;418.30;263.25;;;;;;;;;;4983147;28;20659;-55
2022/08/24 10:24:24;;;;;;;387.95;256.52;;;;;;;;;;4984668;28;20572;-55
2022/08/24 10:26:50;;;;;;;396.00;260.30;;;;;;;;;;4978873;28;20309;-55
2022/08/24 10:29:25;;;;;;;403.00;263.48;;;;;;;;;;4980907;28;20300;-56
2022/08/24 10:32:00;;;;;;;408.63;268.48;;;;;;;;;;4984831;28;20300;-56
2022/08/24 10:34:33;;;;;;;411.02;273.98;;;;;;;;;;4980118;28;20240;-55
2022/08/24 10:37:14;;;;;;;405.02;271.10;;;;;;;;;;4985087;28;20738;-56
2022/08/24 10:40:00;;;;;;;401.08;263.40;;;;;;;;;;4985262;28;20195;-56
2022/08/24 10:45:48;;;;;;;413.27;267.70;;;;;;;;;;4973283;28;20221;-56
2022/08/24 10:48:14;;;;;;;416.92;277.10;;;;;;;;;;4978210;28;20504;-56
2022/08/24 10:50:58;;;;;;;426.17;277.42;;;;;;;;;;4975544;28;20230;-56
2022/08/24 10:53:28;;;;;;;392.25;267.55;;;;;;;;;;4978926;28;20597;-56
2022/08/24 10:56:03;;;;;;;404.80;267.88;;;;;;;;;;4978583;28;20210;-55
2022/08/24 10:58:37;;;;;;;478.55;298.75;;;;;;;;;;4960045;28;20216;-56
2022/08/24 11:01:23;;;;;;;448.33;278.77;;;;;;;;;;4970786;28;20217;-55
2022/08/24 11:03:50;;;;;;;473.67;287.05;;;;;;;;;;4964999;28;20224;-56
2022/08/24 11:06:18;;;;;;;434.40;270.90;;;;;;;;;;4966347;28;20265;-56
2022/08/24 11:08:55;;;;;;;437.27;275.67;;;;;;;;;;4970981;28;20753;-56
2022/08/24 11:11:29;;;;;;;420.58;276.98;;;;;;;;;;4973745;28;21059;-56
2022/08/24 11:14:03;;;;;;;409.13;270.08;;;;;;;;;;4968715;28;20928;-55
2022/08/24 11:16:38;;;;;;;404.52;267.40;;;;;;;;;;4966743;28;20251;-56
2022/08/24 11:19:24;;;;;;;405.38;267.00;;;;;;;;;;4965309;28;20242;-56
2022/08/24 11:21:51;;;;;;;404.10;261.25;;;;;;;;;;4973990;28;20214;-56
2022/08/24 11:24:17;;;;;;;457.48;291.95;;;;;;;;;;4965481;28;20214;-56
2022/08/24 11:26:51;;;;;;;421.52;283.67;;;;;;;;;;4966498;28;20227;-56
2022/08/24 11:29:17;;;;;;;405.45;281.08;;;;;;;;;;4978551;28;20216;-56
2022/08/24 11:31:48;;;;;;;488.42;311.08;;;;;;;;;;4965641;28;20221;-56
2022/08/24 11:34:16;;;;;;;427.13;281.88;;;;;;;;;;4975114;28;20701;-56
2022/08/24 11:36:42;;;;;;;409.45;279.63;;;;;;;;;;4967258;28;20174;-56
2022/08/24 11:39:15;;;;;;;406.63;273.30;;;;;;;;;;4977092;28;20185;-56
2022/08/24 11:41:47;;;;;;;447.33;305.88;;;;;;;;;;4976679;28;20596;-56
2022/08/24 11:44:32;;;;;;;432.85;301.60;;;;;;;;;;4973621;28;20369;-56
2022/08/24 11:47:07;;;;;;;447.65;305.95;;;;;;;;;;4971198;28;20658;-56
2022/08/24 11:49:45;;;;;;;518.17;339.30;;;;;;;;;;4964519;28;20603;-56
2022/08/24 11:52:20;;;;;;;404.08;289.95;;;;;;;;;;4971805;28;20744;-56
2022/08/24 11:54:46;;;;;;;465.60;316.02;;;;;;;;;;4966559;28;20252;-56
2022/08/24 11:57:18;;;;;;;438.00;298.05;;;;;;;;;;4955618;28;20277;-56
2022/08/24 12:00:08;;;;;;;480.23;317.77;;;;;;;;;;4957214;28;20213;-55
2022/08/24 12:02:46;;;;;;;441.38;295.23;;;;;;;;;;4953635;28;20222;-56
2022/08/24 12:05:12;;;;;;;466.33;313.58;;;;;;;;;;4966309;28;20653;-56
2022/08/24 12:07:59;;;;;;;413.17;289.40;;;;;;;;;;4959407;28;20794;-55
2022/08/24 12:10:41;;;;;;;416.02;293.83;;;;;;;;;;4971224;28;20221;-55
2022/08/24 12:13:19;;;;;;;428.42;300.85;;;;;;;;;;4973281;28;20356;-55
2022/08/24 12:15:47;;;;;;;464.60;315.52;;;;;;;;;;4968816;28;20221;-54
2022/08/24 12:18:24;;;;;;;456.38;315.88;;;;;;;;;;4956360;28;20182;-55
2022/08/24 12:20:50;;;;;;;464.63;325.15;;;;;;;;;;4952492;28;20728;-55
2022/08/24 12:23:20;;;;;;;462.75;326.95;;;;;;;;;;4962731;28;20249;-55
2022/08/24 12:26:02;;;;;;;449.13;325.77;;;;;;;;;;4974441;28;20815;-55
2022/08/24 12:28:35;;;;;;;460.95;326.75;;;;;;;;;;4962358;28;20240;-53
2022/08/24 12:31:05;;;;;;;438.80;313.45;;;;;;;;;;4975086;28;20212;-55
2022/08/24 12:33:33;;;;;;;447.13;321.58;;;;;;;;;;4978245;28;20570;-55
2022/08/24 12:36:01;;;;;;;418.27;309.17;;;;;;;;;;4971460;28;20189;-54
2022/08/24 12:38:40;;;;;;;438.80;319.50;;;;;;;;;;4971528;28;20210;-55
2022/08/24 12:41:16;;;;;;;466.20;330.05;;;;;;;;;;4972532;28;20234;-55
2022/08/24 12:43:53;;;;;;;435.67;320.35;;;;;;;;;;4968334;28;20313;-55
2022/08/24 12:46:22;;;;;;;416.20;325.67;;;;;;;;;;4974324;28;20550;-55
2022/08/24 12:49:00;;;;;;;435.25;333.63;;;;;;;;;;4971796;28;20268;-55
2022/08/24 12:51:32;;;;;;;436.88;324.70;;;;;;;;;;4972611;28;20566;-54
2022/08/24 12:54:22;;;;;;;437.90;312.30;;;;;;;;;;4968612;28;20228;-55
2022/08/24 12:56:47;;;;;;;500.60;340.17;;;;;;;;;;4960278;28;20574;-55
2022/08/24 12:59:22;;;;;;;492.77;338.13;;;;;;;;;;4970124;28;20217;-55
2022/08/24 13:02:00;;;;;;;453.95;321.13;;;;;;;;;;4957326;28;20271;-56
2022/08/24 13:04:29;;;;;;;447.77;320.65;;;;;;;;;;4964924;28;20236;-55
2022/08/24 13:07:19;;;;;;;435.98;317.92;;;;;;;;;;4959735;28;20227;-55
2022/08/24 13:09:57;;;;;;;426.35;313.20;;;;;;;;;;4961327;28;20225;-54
2022/08/24 13:12:41;;;;;;;412.73;300.23;;;;;;;;;;4975595;28;20189;-55
2022/08/24 13:15:22;;;;;;;408.63;297.67;;;;;;;;;;4980474;28;20209;-55
2022/08/24 13:17:50;;;;;;;424.60;300.92;;;;;;;;;;4975797;28;20309;-54
2022/08/24 13:20:25;;;;;;;435.00;308.13;;;;;;;;;;4974307;28;20225;-55
2022/08/24 13:23:10;;;;;;;445.30;311.23;;;;;;;;;;4967581;28;20304;-55
2022/08/24 13:25:55;;;;;;;452.42;319.48;;;;;;;;;;4976404;28;20597;-55
2022/08/24 13:28:21;;;;;;;439.85;314.17;;;;;;;;;;4977313;28;20272;-54
2022/08/24 13:30:50;;;;;;;440.40;311.25;;;;;;;;;;4970772;28;22818;-54
2022/08/24 13:33:16;;;;;;;447.35;330.38;;;;;;;;;;4974173;28;20209;-55
2022/08/24 13:35:52;;;;;;;464.02;330.25;;;;;;;;;;4975973;28;20314;-53
2022/08/24 13:38:33;;;;;;;586.05;367.98;;;;;;;;;;4974774;28;20217;-52
2022/08/24 13:41:05;;;;;;;416.15;310.45;;;;;;;;;;4969980;28;20217;-54
2022/08/24 13:43:39;;;;;;;405.02;310.55;;;;;;;;;;4978403;28;20227;-54
2022/08/24 13:46:11;;;;;;;431.67;337.48;;;;;;;;;;4971560;28;20308;-54
2022/08/24 13:48:46;;;;;;;437.83;339.25;;;;;;;;;;4966124;28;20192;-53
2022/08/24 13:51:19;;;;;;;412.38;340.20;;;;;;;;;;4971851;28;20190;-54
2022/08/24 13:53:51;;;;;;;442.02;359.35;;;;;;;;;;4970649;28;20312;-56
2022/08/24 13:56:23;;;;;;;515.38;395.58;;;;;;;;;;4970639;28;20233;-52
2022/08/24 13:59:10;;;;;;;524.42;398.65;;;;;;;;;;4957530;28;20620;-52
2022/08/24 14:01:42;;;;;;;492.42;396.63;;;;;;;;;;4959848;28;21265;-52
2022/08/24 14:04:19;;;;;;;674.50;474.60;;;;;;;;;;4959350;28;20572;-53
2022/08/24 14:06:51;;;;;;;433.42;378.50;;;;;;;;;;4969963;28;20222;-53
2022/08/24 14:09:31;;;;;;;457.25;408.63;;;;;;;;;;4975954;28;20280;-52
2022/08/24 14:12:07;;;;;;;455.13;408.73;;;;;;;;;;4970604;28;20731;-53
2022/08/24 14:14:42;;;;;;;476.60;429.52;;;;;;;;;;4983275;28;20325;-54
2022/08/24 14:19:55;;;;;;;500.50;453.70;;;;;;;;;;4983302;28;20311;-53